sensor_id;sensor_type;location;lat;lon;timestamp;P1;durP1;ratioP1;P2;durP2;ratioP2
75854;SDS011;64502;59.976;30.316;2022-11-06T00:01:05;4.50;;;1.20;;
75854;SDS011;64502;59.976;30.316;2022-11-06T00:03:36;2.55;;;1.25;;
75854;SDS011;64502;59.976;30.316;2022-11-06T00:06:09;3.30;;;1.38;;
75854;SDS011;64502;59.976;30.316;2022-11-06T00:08:55;3.08;;;1.20;;
75854;SDS011;64502;59.976;30.316;2022-11-06T00:11:22;2.33;;;0.82;;
75854;SDS011;64502;59.976;30.316;2022-11-06T00:13:48;4.22;;;1.27;;
75854;SDS011;64502;59.976;30.316;2022-11-06T00:16:16;2.10;;;0.90;;
75854;SDS011;64502;59.976;30.316;2022-11-06T00:18:41;3.17;;;1.73;;
75854;SDS011;64502;59.976;30.316;2022-11-06T00:21:08;2.20;;;0.90;;
75854;SDS011;64502;59.976;30.316;2022-11-06T00:23:38;2.08;;;0.85;;
75854;SDS011;64502;59.976;30.316;2022-11-06T00:26:07;3.10;;;1.25;;
75854;SDS011;64502;59.976;30.316;2022-11-06T00:28:39;3.72;;;1.50;;
75854;SDS011;64502;59.976;30.316;2022-11-06T00:31:06;3.03;;;1.42;;
75854;SDS011;64502;59.976;30.316;2022-11-06T00:33:33;3.28;;;1.63;;
75854;SDS011;64502;59.976;30.316;2022-11-06T00:36:01;3.10;;;1.10;;
75854;SDS011;64502;59.976;30.316;2022-11-06T00:38:28;3.30;;;1.35;;
75854;SDS011;64502;59.976;30.316;2022-11-06T00:40:53;3.15;;;1.23;;
75854;SDS011;64502;59.976;30.316;2022-11-06T00:43:19;4.05;;;1.23;;
75854;SDS011;64502;59.976;30.316;2022-11-06T00:45:45;4.60;;;1.13;;
75854;SDS011;64502;59.976;30.316;2022-11-06T00:48:10;2.55;;;1.25;;
75854;SDS011;64502;59.976;30.316;2022-11-06T00:50:35;2.20;;;0.80;;
75854;SDS011;64502;59.976;30.316;2022-11-06T00:53:01;2.67;;;1.00;;
75854;SDS011;64502;59.976;30.316;2022-11-06T00:55:26;3.55;;;1.10;;
75854;SDS011;64502;59.976;30.316;2022-11-06T00:57:52;2.78;;;1.00;;
75854;SDS011;64502;59.976;30.316;2022-11-06T01:00:17;3.10;;;1.20;;
75854;SDS011;64502;59.976;30.316;2022-11-06T01:02:44;3.65;;;1.80;;
75854;SDS011;64502;59.976;30.316;2022-11-06T01:05:10;3.30;;;1.17;;
75854;SDS011;64502;59.976;30.316;2022-11-06T01:07:37;1.98;;;0.93;;
75854;SDS011;64502;59.976;30.316;2022-11-06T01:10:02;2.67;;;1.30;;
75854;SDS011;64502;59.976;30.316;2022-11-06T01:12:32;2.72;;;1.23;;
75854;SDS011;64502;59.976;30.316;2022-11-06T01:14:59;2.70;;;1.50;;
75854;SDS011;64502;59.976;30.316;2022-11-06T01:17:25;2.85;;;1.00;;
75854;SDS011;64502;59.976;30.316;2022-11-06T01:19:50;3.25;;;1.30;;
75854;SDS011;64502;59.976;30.316;2022-11-06T01:22:16;1.98;;;0.73;;
75854;SDS011;64502;59.976;30.316;2022-11-06T01:24:41;3.08;;;1.10;;
75854;SDS011;64502;59.976;30.316;2022-11-06T01:27:07;2.75;;;1.13;;
75854;SDS011;64502;59.976;30.316;2022-11-06T01:29:33;3.40;;;1.17;;
75854;SDS011;64502;59.976;30.316;2022-11-06T01:31:58;3.42;;;1.30;;
75854;SDS011;64502;59.976;30.316;2022-11-06T01:34:24;3.20;;;1.25;;
75854;SDS011;64502;59.976;30.316;2022-11-06T01:36:50;2.72;;;1.20;;
75854;SDS011;64502;59.976;30.316;2022-11-06T01:39:15;2.53;;;0.98;;
75854;SDS011;64502;59.976;30.316;2022-11-06T01:41:42;3.97;;;1.67;;
75854;SDS011;64502;59.976;30.316;2022-11-06T01:46:38;4.40;;;1.60;;
75854;SDS011;64502;59.976;30.316;2022-11-06T01:49:08;2.88;;;1.38;;
75854;SDS011;64502;59.976;30.316;2022-11-06T01:51:38;4.65;;;2.10;;
75854;SDS011;64502;59.976;30.316;2022-11-06T01:54:09;4.82;;;1.98;;
75854;SDS011;64502;59.976;30.316;2022-11-06T01:56:36;5.93;;;2.50;;
75854;SDS011;64502;59.976;30.316;2022-11-06T01:59:03;4.00;;;1.92;;
75854;SDS011;64502;59.976;30.316;2022-11-06T02:01:30;5.80;;;2.30;;
75854;SDS011;64502;59.976;30.316;2022-11-06T02:04:07;3.38;;;1.70;;
75854;SDS011;64502;59.976;30.316;2022-11-06T02:06:41;4.57;;;2.28;;
75854;SDS011;64502;59.976;30.316;2022-11-06T02:09:09;5.35;;;1.90;;
75854;SDS011;64502;59.976;30.316;2022-11-06T02:11:40;5.63;;;2.03;;
75854;SDS011;64502;59.976;30.316;2022-11-06T02:17:12;3.90;;;1.80;;
75854;SDS011;64502;59.976;30.316;2022-11-06T02:28:33;4.75;;;2.13;;
75854;SDS011;64502;59.976;30.316;2022-11-06T02:31:04;4.47;;;1.75;;
75854;SDS011;64502;59.976;30.316;2022-11-06T02:33:37;5.07;;;2.05;;
75854;SDS011;64502;59.976;30.316;2022-11-06T02:36:10;5.22;;;2.03;;
75854;SDS011;64502;59.976;30.316;2022-11-06T02:38:42;4.43;;;1.98;;
75854;SDS011;64502;59.976;30.316;2022-11-06T02:41:21;5.28;;;2.33;;
75854;SDS011;64502;59.976;30.316;2022-11-06T02:43:53;4.30;;;1.80;;
75854;SDS011;64502;59.976;30.316;2022-11-06T02:49:22;5.10;;;2.28;;
75854;SDS011;64502;59.976;30.316;2022-11-06T02:51:52;5.70;;;2.95;;
75854;SDS011;64502;59.976;30.316;2022-11-06T02:54:23;5.82;;;2.45;;
75854;SDS011;64502;59.976;30.316;2022-11-06T02:56:53;4.45;;;1.90;;
75854;SDS011;64502;59.976;30.316;2022-11-06T02:59:32;6.97;;;2.58;;
75854;SDS011;64502;59.976;30.316;2022-11-06T03:02:06;7.70;;;3.22;;
75854;SDS011;64502;59.976;30.316;2022-11-06T03:07:08;5.35;;;2.25;;
75854;SDS011;64502;59.976;30.316;2022-11-06T03:09:40;7.20;;;2.75;;
75854;SDS011;64502;59.976;30.316;2022-11-06T03:12:10;5.53;;;2.75;;
75854;SDS011;64502;59.976;30.316;2022-11-06T03:14:44;6.22;;;2.58;;
75854;SDS011;64502;59.976;30.316;2022-11-06T03:17:17;6.32;;;2.67;;
75854;SDS011;64502;59.976;30.316;2022-11-06T03:19:49;5.65;;;2.53;;
75854;SDS011;64502;59.976;30.316;2022-11-06T03:22:31;7.38;;;3.05;;
75854;SDS011;64502;59.976;30.316;2022-11-06T03:25:12;7.55;;;3.13;;
75854;SDS011;64502;59.976;30.316;2022-11-06T03:27:41;6.15;;;2.58;;
75854;SDS011;64502;59.976;30.316;2022-11-06T03:30:19;7.40;;;3.17;;
75854;SDS011;64502;59.976;30.316;2022-11-06T03:35:27;9.83;;;3.20;;
75854;SDS011;64502;59.976;30.316;2022-11-06T03:38:00;6.95;;;3.22;;
75854;SDS011;64502;59.976;30.316;2022-11-06T03:40:33;7.00;;;3.17;;
75854;SDS011;64502;59.976;30.316;2022-11-06T03:43:05;8.38;;;3.00;;
75854;SDS011;64502;59.976;30.316;2022-11-06T03:45:33;11.90;;;5.13;;
75854;SDS011;64502;59.976;30.316;2022-11-06T03:48:04;6.82;;;3.42;;
75854;SDS011;64502;59.976;30.316;2022-11-06T03:56:22;7.88;;;3.20;;
75854;SDS011;64502;59.976;30.316;2022-11-06T03:58:51;10.07;;;3.25;;
75854;SDS011;64502;59.976;30.316;2022-11-06T04:01:20;8.85;;;3.15;;
75854;SDS011;64502;59.976;30.316;2022-11-06T04:03:59;10.73;;;3.58;;
75854;SDS011;64502;59.976;30.316;2022-11-06T04:06:50;7.55;;;3.75;;
75854;SDS011;64502;59.976;30.316;2022-11-06T04:09:23;8.73;;;3.45;;
75854;SDS011;64502;59.976;30.316;2022-11-06T04:12:12;8.57;;;3.13;;
75854;SDS011;64502;59.976;30.316;2022-11-06T04:17:27;10.50;;;3.38;;
75854;SDS011;64502;59.976;30.316;2022-11-06T04:19:57;10.13;;;3.33;;
75854;SDS011;64502;59.976;30.316;2022-11-06T04:27:57;10.75;;;3.72;;
75854;SDS011;64502;59.976;30.316;2022-11-06T04:30:34;11.77;;;4.10;;
75854;SDS011;64502;59.976;30.316;2022-11-06T04:33:31;11.18;;;3.92;;
75854;SDS011;64502;59.976;30.316;2022-11-06T04:39:27;10.05;;;4.80;;
75854;SDS011;64502;59.976;30.316;2022-11-06T04:45:05;12.05;;;4.13;;
75854;SDS011;64502;59.976;30.316;2022-11-06T04:47:41;10.07;;;4.38;;
75854;SDS011;64502;59.976;30.316;2022-11-06T04:50:09;12.13;;;4.68;;
75854;SDS011;64502;59.976;30.316;2022-11-06T04:52:37;11.73;;;4.00;;
75854;SDS011;64502;59.976;30.316;2022-11-06T04:55:04;10.75;;;4.13;;
75854;SDS011;64502;59.976;30.316;2022-11-06T04:57:30;12.45;;;4.40;;
75854;SDS011;64502;59.976;30.316;2022-11-06T04:59:56;11.10;;;4.00;;
75854;SDS011;64502;59.976;30.316;2022-11-06T05:02:21;9.70;;;4.45;;
75854;SDS011;64502;59.976;30.316;2022-11-06T05:04:47;15.43;;;4.95;;
75854;SDS011;64502;59.976;30.316;2022-11-06T05:07:13;11.82;;;5.80;;
75854;SDS011;64502;59.976;30.316;2022-11-06T05:09:40;13.07;;;4.50;;
75854;SDS011;64502;59.976;30.316;2022-11-06T05:12:06;10.85;;;4.35;;
75854;SDS011;64502;59.976;30.316;2022-11-06T05:14:31;12.70;;;4.45;;
75854;SDS011;64502;59.976;30.316;2022-11-06T05:16:57;12.65;;;5.13;;
75854;SDS011;64502;59.976;30.316;2022-11-06T05:19:23;18.17;;;5.68;;
75854;SDS011;64502;59.976;30.316;2022-11-06T05:21:49;11.15;;;4.75;;
75854;SDS011;64502;59.976;30.316;2022-11-06T05:24:33;9.88;;;4.40;;
75854;SDS011;64502;59.976;30.316;2022-11-06T05:26:58;12.10;;;4.85;;
75854;SDS011;64502;59.976;30.316;2022-11-06T05:29:24;10.77;;;4.47;;
75854;SDS011;64502;59.976;30.316;2022-11-06T05:31:49;11.02;;;5.07;;
75854;SDS011;64502;59.976;30.316;2022-11-06T05:34:15;15.95;;;5.80;;
75854;SDS011;64502;59.976;30.316;2022-11-06T05:36:42;12.38;;;4.85;;
75854;SDS011;64502;59.976;30.316;2022-11-06T05:39:07;12.60;;;4.75;;
75854;SDS011;64502;59.976;30.316;2022-11-06T05:41:33;13.85;;;5.38;;
75854;SDS011;64502;59.976;30.316;2022-11-06T05:43:59;16.63;;;5.47;;
75854;SDS011;64502;59.976;30.316;2022-11-06T05:46:25;14.07;;;5.07;;
75854;SDS011;64502;59.976;30.316;2022-11-06T05:48:51;13.90;;;4.55;;
75854;SDS011;64502;59.976;30.316;2022-11-06T05:51:16;14.70;;;4.57;;
75854;SDS011;64502;59.976;30.316;2022-11-06T05:53:42;15.75;;;5.57;;
75854;SDS011;64502;59.976;30.316;2022-11-06T05:56:07;12.43;;;5.45;;
75854;SDS011;64502;59.976;30.316;2022-11-06T05:58:33;16.77;;;6.07;;
75854;SDS011;64502;59.976;30.316;2022-11-06T06:00:58;13.90;;;5.13;;
75854;SDS011;64502;59.976;30.316;2022-11-06T06:03:24;13.95;;;5.22;;
75854;SDS011;64502;59.976;30.316;2022-11-06T06:05:50;12.05;;;5.03;;
75854;SDS011;64502;59.976;30.316;2022-11-06T06:08:16;11.45;;;4.82;;
75854;SDS011;64502;59.976;30.316;2022-11-06T06:10:42;11.40;;;4.93;;
75854;SDS011;64502;59.976;30.316;2022-11-06T06:13:11;15.80;;;5.53;;
75854;SDS011;64502;59.976;30.316;2022-11-06T06:15:38;13.77;;;5.93;;
75854;SDS011;64502;59.976;30.316;2022-11-06T06:18:04;14.23;;;6.15;;
75854;SDS011;64502;59.976;30.316;2022-11-06T06:20:31;11.48;;;4.82;;
75854;SDS011;64502;59.976;30.316;2022-11-06T06:22:57;11.90;;;4.80;;
75854;SDS011;64502;59.976;30.316;2022-11-06T06:25:23;15.75;;;5.32;;
75854;SDS011;64502;59.976;30.316;2022-11-06T06:27:50;13.20;;;4.75;;
75854;SDS011;64502;59.976;30.316;2022-11-06T06:30:16;12.63;;;4.53;;
75854;SDS011;64502;59.976;30.316;2022-11-06T06:32:41;15.20;;;5.38;;
75854;SDS011;64502;59.976;30.316;2022-11-06T06:35:07;13.95;;;4.78;;
75854;SDS011;64502;59.976;30.316;2022-11-06T06:37:33;12.55;;;4.45;;
75854;SDS011;64502;59.976;30.316;2022-11-06T06:39:59;12.50;;;4.88;;
75854;SDS011;64502;59.976;30.316;2022-11-06T06:42:26;15.25;;;4.93;;
75854;SDS011;64502;59.976;30.316;2022-11-06T06:44:52;12.63;;;4.78;;
75854;SDS011;64502;59.976;30.316;2022-11-06T06:47:17;15.10;;;5.30;;
75854;SDS011;64502;59.976;30.316;2022-11-06T06:49:43;13.07;;;4.38;;
75854;SDS011;64502;59.976;30.316;2022-11-06T06:52:09;9.90;;;4.03;;
75854;SDS011;64502;59.976;30.316;2022-11-06T06:54:34;12.05;;;4.80;;
75854;SDS011;64502;59.976;30.316;2022-11-06T06:57:00;12.00;;;4.75;;
75854;SDS011;64502;59.976;30.316;2022-11-06T06:59:28;12.30;;;5.00;;
75854;SDS011;64502;59.976;30.316;2022-11-06T07:01:55;8.90;;;3.97;;
75854;SDS011;64502;59.976;30.316;2022-11-06T07:04:21;14.90;;;5.75;;
75854;SDS011;64502;59.976;30.316;2022-11-06T07:06:47;8.52;;;4.20;;
75854;SDS011;64502;59.976;30.316;2022-11-06T07:09:12;11.95;;;4.32;;
75854;SDS011;64502;59.976;30.316;2022-11-06T07:11:38;14.30;;;4.80;;
75854;SDS011;64502;59.976;30.316;2022-11-06T07:14:04;9.77;;;4.60;;
75854;SDS011;64502;59.976;30.316;2022-11-06T07:16:29;11.35;;;5.05;;
75854;SDS011;64502;59.976;30.316;2022-11-06T07:18:56;11.40;;;4.25;;
75854;SDS011;64502;59.976;30.316;2022-11-06T07:21:23;11.40;;;4.03;;
75854;SDS011;64502;59.976;30.316;2022-11-06T07:23:48;12.13;;;4.88;;
75854;SDS011;64502;59.976;30.316;2022-11-06T07:26:14;13.35;;;4.90;;
75854;SDS011;64502;59.976;30.316;2022-11-06T07:28:40;11.38;;;4.53;;
75854;SDS011;64502;59.976;30.316;2022-11-06T07:31:06;10.57;;;4.13;;
75854;SDS011;64502;59.976;30.316;2022-11-06T07:33:33;11.15;;;4.13;;
75854;SDS011;64502;59.976;30.316;2022-11-06T07:36:03;12.15;;;4.95;;
75854;SDS011;64502;59.976;30.316;2022-11-06T07:38:31;9.10;;;3.70;;
75854;SDS011;64502;59.976;30.316;2022-11-06T07:41:02;8.98;;;4.22;;
75854;SDS011;64502;59.976;30.316;2022-11-06T07:43:28;10.48;;;4.05;;
75854;SDS011;64502;59.976;30.316;2022-11-06T07:45:56;8.25;;;3.42;;
75854;SDS011;64502;59.976;30.316;2022-11-06T07:48:23;14.88;;;4.40;;
75854;SDS011;64502;59.976;30.316;2022-11-06T07:50:49;10.68;;;3.60;;
75854;SDS011;64502;59.976;30.316;2022-11-06T07:53:14;9.63;;;4.38;;
75854;SDS011;64502;59.976;30.316;2022-11-06T07:55:46;9.70;;;3.40;;
75854;SDS011;64502;59.976;30.316;2022-11-06T07:58:12;9.50;;;3.83;;
75854;SDS011;64502;59.976;30.316;2022-11-06T08:00:37;9.50;;;3.88;;
75854;SDS011;64502;59.976;30.316;2022-11-06T08:03:03;9.32;;;4.55;;
75854;SDS011;64502;59.976;30.316;2022-11-06T08:05:28;11.63;;;4.13;;
75854;SDS011;64502;59.976;30.316;2022-11-06T08:07:57;10.45;;;3.92;;
75854;SDS011;64502;59.976;30.316;2022-11-06T08:10:22;8.40;;;3.78;;
75854;SDS011;64502;59.976;30.316;2022-11-06T08:12:48;11.27;;;4.07;;
75854;SDS011;64502;59.976;30.316;2022-11-06T08:15:13;8.52;;;4.05;;
75854;SDS011;64502;59.976;30.316;2022-11-06T08:17:39;10.95;;;4.32;;
75854;SDS011;64502;59.976;30.316;2022-11-06T08:20:04;9.98;;;3.88;;
75854;SDS011;64502;59.976;30.316;2022-11-06T08:22:30;9.35;;;4.10;;
75854;SDS011;64502;59.976;30.316;2022-11-06T08:24:56;10.55;;;3.90;;
75854;SDS011;64502;59.976;30.316;2022-11-06T08:27:21;9.52;;;4.35;;
75854;SDS011;64502;59.976;30.316;2022-11-06T08:29:47;8.18;;;3.95;;
75854;SDS011;64502;59.976;30.316;2022-11-06T08:32:12;10.93;;;4.50;;
75854;SDS011;64502;59.976;30.316;2022-11-06T08:34:38;8.95;;;3.80;;
75854;SDS011;64502;59.976;30.316;2022-11-06T08:37:03;10.10;;;3.78;;
75854;SDS011;64502;59.976;30.316;2022-11-06T08:39:29;16.10;;;3.55;;
75854;SDS011;64502;59.976;30.316;2022-11-06T08:41:54;7.45;;;3.67;;
75854;SDS011;64502;59.976;30.316;2022-11-06T08:44:21;10.43;;;3.33;;
75854;SDS011;64502;59.976;30.316;2022-11-06T08:46:48;8.65;;;3.85;;
75854;SDS011;64502;59.976;30.316;2022-11-06T08:49:13;9.85;;;3.30;;
75854;SDS011;64502;59.976;30.316;2022-11-06T08:51:39;7.82;;;3.63;;
75854;SDS011;64502;59.976;30.316;2022-11-06T08:54:04;6.57;;;2.85;;
75854;SDS011;64502;59.976;30.316;2022-11-06T08:56:30;9.15;;;3.33;;
75854;SDS011;64502;59.976;30.316;2022-11-06T08:58:55;9.10;;;3.22;;
75854;SDS011;64502;59.976;30.316;2022-11-06T09:01:21;6.55;;;2.70;;
75854;SDS011;64502;59.976;30.316;2022-11-06T09:03:47;7.45;;;3.25;;
75854;SDS011;64502;59.976;30.316;2022-11-06T09:06:13;7.82;;;3.17;;
75854;SDS011;64502;59.976;30.316;2022-11-06T09:08:38;5.40;;;2.67;;
75854;SDS011;64502;59.976;30.316;2022-11-06T09:11:04;6.18;;;2.70;;
75854;SDS011;64502;59.976;30.316;2022-11-06T09:13:34;9.93;;;2.78;;
75854;SDS011;64502;59.976;30.316;2022-11-06T09:16:00;7.30;;;2.95;;
75854;SDS011;64502;59.976;30.316;2022-11-06T09:18:26;6.97;;;2.72;;
75854;SDS011;64502;59.976;30.316;2022-11-06T09:20:55;7.53;;;2.38;;
75854;SDS011;64502;59.976;30.316;2022-11-06T09:23:21;7.05;;;2.97;;
75854;SDS011;64502;59.976;30.316;2022-11-06T09:25:47;7.70;;;2.90;;
75854;SDS011;64502;59.976;30.316;2022-11-06T09:28:13;6.25;;;2.28;;
75854;SDS011;64502;59.976;30.316;2022-11-06T09:30:39;7.95;;;2.97;;
75854;SDS011;64502;59.976;30.316;2022-11-06T09:33:04;6.43;;;2.40;;
75854;SDS011;64502;59.976;30.316;2022-11-06T09:35:31;4.78;;;1.90;;
75854;SDS011;64502;59.976;30.316;2022-11-06T09:38:02;5.72;;;2.15;;
75854;SDS011;64502;59.976;30.316;2022-11-06T09:40:36;5.72;;;2.20;;
75854;SDS011;64502;59.976;30.316;2022-11-06T09:45:55;6.88;;;2.35;;
75854;SDS011;64502;59.976;30.316;2022-11-06T09:48:34;7.72;;;2.40;;
75854;SDS011;64502;59.976;30.316;2022-11-06T09:56:00;9.43;;;3.38;;
75854;SDS011;64502;59.976;30.316;2022-11-06T09:58:30;4.82;;;1.83;;
75854;SDS011;64502;59.976;30.316;2022-11-06T10:01:04;6.93;;;2.65;;
75854;SDS011;64502;59.976;30.316;2022-11-06T10:03:56;5.22;;;1.98;;
75854;SDS011;64502;59.976;30.316;2022-11-06T10:06:24;7.40;;;2.20;;
75854;SDS011;64502;59.976;30.316;2022-11-06T10:08:51;8.05;;;2.45;;
75854;SDS011;64502;59.976;30.316;2022-11-06T10:11:29;9.20;;;2.25;;
75854;SDS011;64502;59.976;30.316;2022-11-06T10:14:30;6.13;;;1.92;;
75854;SDS011;64502;59.976;30.316;2022-11-06T10:17:13;5.63;;;2.08;;
75854;SDS011;64502;59.976;30.316;2022-11-06T10:19:48;7.57;;;2.53;;
75854;SDS011;64502;59.976;30.316;2022-11-06T10:25:42;3.72;;;1.42;;
75854;SDS011;64502;59.976;30.316;2022-11-06T10:36:37;5.50;;;2.38;;
75854;SDS011;64502;59.976;30.316;2022-11-06T10:39:09;5.00;;;2.42;;
75854;SDS011;64502;59.976;30.316;2022-11-06T10:41:39;5.15;;;1.98;;
75854;SDS011;64502;59.976;30.316;2022-11-06T10:44:19;4.93;;;2.42;;
75854;SDS011;64502;59.976;30.316;2022-11-06T10:47:07;5.53;;;2.50;;
75854;SDS011;64502;59.976;30.316;2022-11-06T10:49:57;4.15;;;2.15;;
75854;SDS011;64502;59.976;30.316;2022-11-06T10:52:34;6.28;;;2.10;;
75854;SDS011;64502;59.976;30.316;2022-11-06T10:57:41;6.03;;;2.33;;
75854;SDS011;64502;59.976;30.316;2022-11-06T11:00:16;8.65;;;2.78;;
75854;SDS011;64502;59.976;30.316;2022-11-06T11:02:51;7.45;;;2.10;;
75854;SDS011;64502;59.976;30.316;2022-11-06T11:05:20;3.47;;;2.05;;
75854;SDS011;64502;59.976;30.316;2022-11-06T11:07:49;7.15;;;2.47;;
75854;SDS011;64502;59.976;30.316;2022-11-06T11:10:28;5.80;;;2.40;;
75854;SDS011;64502;59.976;30.316;2022-11-06T11:12:59;5.57;;;2.60;;
75854;SDS011;64502;59.976;30.316;2022-11-06T11:15:30;7.25;;;2.38;;
75854;SDS011;64502;59.976;30.316;2022-11-06T11:20:42;5.88;;;2.28;;
75854;SDS011;64502;59.976;30.316;2022-11-06T11:23:19;4.80;;;2.33;;
75854;SDS011;64502;59.976;30.316;2022-11-06T11:25:56;7.00;;;2.58;;
75854;SDS011;64502;59.976;30.316;2022-11-06T11:28:38;4.55;;;1.77;;
75854;SDS011;64502;59.976;30.316;2022-11-06T11:31:07;4.97;;;2.22;;
75854;SDS011;64502;59.976;30.316;2022-11-06T11:33:36;4.57;;;2.75;;
75854;SDS011;64502;59.976;30.316;2022-11-06T11:36:05;5.15;;;2.00;;
75854;SDS011;64502;59.976;30.316;2022-11-06T11:38:36;4.10;;;1.92;;
75854;SDS011;64502;59.976;30.316;2022-11-06T11:41:21;6.03;;;2.70;;
75854;SDS011;64502;59.976;30.316;2022-11-06T11:44:05;5.03;;;2.22;;
75854;SDS011;64502;59.976;30.316;2022-11-06T11:46:48;6.22;;;2.50;;
75854;SDS011;64502;59.976;30.316;2022-11-06T11:49:30;4.43;;;1.98;;
75854;SDS011;64502;59.976;30.316;2022-11-06T11:51:58;4.60;;;2.22;;
75854;SDS011;64502;59.976;30.316;2022-11-06T11:54:28;5.90;;;2.05;;
75854;SDS011;64502;59.976;30.316;2022-11-06T11:57:40;4.15;;;2.10;;
75854;SDS011;64502;59.976;30.316;2022-11-06T11:59:48;4.53;;;2.25;;
75854;SDS011;64502;59.976;30.316;2022-11-06T12:07:50;6.20;;;2.25;;
75854;SDS011;64502;59.976;30.316;2022-11-06T12:10:25;5.05;;;2.13;;
75854;SDS011;64502;59.976;30.316;2022-11-06T12:13:06;7.65;;;2.40;;
75854;SDS011;64502;59.976;30.316;2022-11-06T12:18:14;5.05;;;2.35;;
75854;SDS011;64502;59.976;30.316;2022-11-06T12:23:20;7.00;;;3.40;;
75854;SDS011;64502;59.976;30.316;2022-11-06T12:25:58;5.57;;;2.85;;
75854;SDS011;64502;59.976;30.316;2022-11-06T12:28:49;6.97;;;2.83;;
75854;SDS011;64502;59.976;30.316;2022-11-06T12:34:20;6.60;;;2.95;;
75854;SDS011;64502;59.976;30.316;2022-11-06T12:36:57;7.32;;;3.08;;
75854;SDS011;64502;59.976;30.316;2022-11-06T12:39:46;8.15;;;3.40;;
75854;SDS011;64502;59.976;30.316;2022-11-06T12:42:18;5.72;;;2.78;;
75854;SDS011;64502;59.976;30.316;2022-11-06T12:44:46;7.35;;;3.53;;
75854;SDS011;64502;59.976;30.316;2022-11-06T12:55:40;5.68;;;2.42;;
75854;SDS011;64502;59.976;30.316;2022-11-06T13:12:14;9.98;;;4.05;;
75854;SDS011;64502;59.976;30.316;2022-11-06T13:17:49;7.53;;;3.70;;
75854;SDS011;64502;59.976;30.316;2022-11-06T13:20:35;8.27;;;2.88;;
75854;SDS011;64502;59.976;30.316;2022-11-06T13:28:40;5.75;;;2.90;;
75854;SDS011;64502;59.976;30.316;2022-11-06T13:31:09;11.10;;;4.03;;
75854;SDS011;64502;59.976;30.316;2022-11-06T13:36:20;6.95;;;3.15;;
75854;SDS011;64502;59.976;30.316;2022-11-06T13:38:52;7.03;;;3.20;;
75854;SDS011;64502;59.976;30.316;2022-11-06T13:41:29;5.15;;;2.38;;
75854;SDS011;64502;59.976;30.316;2022-11-06T13:43:57;5.72;;;3.03;;
75854;SDS011;64502;59.976;30.316;2022-11-06T13:51:51;4.75;;;3.03;;
75854;SDS011;64502;59.976;30.316;2022-11-06T13:54:26;7.07;;;2.80;;
75854;SDS011;64502;59.976;30.316;2022-11-06T14:13:38;5.10;;;3.10;;
75854;SDS011;64502;59.976;30.316;2022-11-06T14:16:26;5.88;;;3.45;;
75854;SDS011;64502;59.976;30.316;2022-11-06T14:18:55;5.68;;;3.03;;
75854;SDS011;64502;59.976;30.316;2022-11-06T14:24:26;4.40;;;2.70;;
75854;SDS011;64502;59.976;30.316;2022-11-06T14:26:56;6.15;;;2.97;;
75854;SDS011;64502;59.976;30.316;2022-11-06T14:34:25;8.57;;;4.03;;
75854;SDS011;64502;59.976;30.316;2022-11-06T14:36:55;7.30;;;3.55;;
75854;SDS011;64502;59.976;30.316;2022-11-06T14:44:52;8.25;;;3.80;;
75854;SDS011;64502;59.976;30.316;2022-11-06T14:50:01;9.10;;;4.55;;
75854;SDS011;64502;59.976;30.316;2022-11-06T14:52:38;9.07;;;4.30;;
75854;SDS011;64502;59.976;30.316;2022-11-06T14:55:13;8.43;;;4.18;;
75854;SDS011;64502;59.976;30.316;2022-11-06T14:57:50;9.10;;;3.42;;
75854;SDS011;64502;59.976;30.316;2022-11-06T15:03:02;12.02;;;5.25;;
75854;SDS011;64502;59.976;30.316;2022-11-06T15:05:30;10.25;;;4.55;;
75854;SDS011;64502;59.976;30.316;2022-11-06T15:08:00;9.32;;;4.47;;
75854;SDS011;64502;59.976;30.316;2022-11-06T15:15:47;8.98;;;3.88;;
75854;SDS011;64502;59.976;30.316;2022-11-06T15:18:18;10.93;;;4.50;;
75854;SDS011;64502;59.976;30.316;2022-11-06T15:20:52;10.20;;;5.13;;
75854;SDS011;64502;59.976;30.316;2022-11-06T15:23:25;8.13;;;3.95;;
75854;SDS011;64502;59.976;30.316;2022-11-06T15:25:59;10.38;;;4.13;;
75854;SDS011;64502;59.976;30.316;2022-11-06T15:28:30;7.25;;;3.60;;
75854;SDS011;64502;59.976;30.316;2022-11-06T15:31:03;8.13;;;4.28;;
75854;SDS011;64502;59.976;30.316;2022-11-06T15:33:37;15.02;;;6.95;;
75854;SDS011;64502;59.976;30.316;2022-11-06T15:36:24;13.68;;;6.40;;
75854;SDS011;64502;59.976;30.316;2022-11-06T15:38:52;13.27;;;5.63;;
75854;SDS011;64502;59.976;30.316;2022-11-06T15:41:19;8.80;;;4.78;;
75854;SDS011;64502;59.976;30.316;2022-11-06T15:43:48;10.25;;;4.35;;
75854;SDS011;64502;59.976;30.316;2022-11-06T15:46:23;9.30;;;4.30;;
75854;SDS011;64502;59.976;30.316;2022-11-06T15:51:48;11.50;;;4.50;;
75854;SDS011;64502;59.976;30.316;2022-11-06T15:57:20;8.45;;;4.35;;
75854;SDS011;64502;59.976;30.316;2022-11-06T15:59:48;9.60;;;4.47;;
75854;SDS011;64502;59.976;30.316;2022-11-06T16:02:18;11.90;;;6.07;;
75854;SDS011;64502;59.976;30.316;2022-11-06T16:04:49;8.48;;;4.53;;
75854;SDS011;64502;59.976;30.316;2022-11-06T16:07:16;10.85;;;5.30;;
75854;SDS011;64502;59.976;30.316;2022-11-06T16:09:43;10.15;;;5.60;;
75854;SDS011;64502;59.976;30.316;2022-11-06T16:12:10;10.23;;;4.70;;
75854;SDS011;64502;59.976;30.316;2022-11-06T16:14:39;9.43;;;5.22;;
75854;SDS011;64502;59.976;30.316;2022-11-06T16:17:15;13.13;;;6.28;;
75854;SDS011;64502;59.976;30.316;2022-11-06T16:19:46;11.15;;;5.78;;
75854;SDS011;64502;59.976;30.316;2022-11-06T16:22:17;10.55;;;5.50;;
75854;SDS011;64502;59.976;30.316;2022-11-06T16:24:48;12.15;;;5.07;;
75854;SDS011;64502;59.976;30.316;2022-11-06T16:27:17;10.00;;;5.57;;
75854;SDS011;64502;59.976;30.316;2022-11-06T16:29:47;8.93;;;4.85;;
75854;SDS011;64502;59.976;30.316;2022-11-06T16:32:18;10.10;;;5.18;;
75854;SDS011;64502;59.976;30.316;2022-11-06T16:34:46;10.75;;;5.13;;
75854;SDS011;64502;59.976;30.316;2022-11-06T16:39:50;10.23;;;4.85;;
75854;SDS011;64502;59.976;30.316;2022-11-06T16:42:26;9.68;;;4.88;;
75854;SDS011;64502;59.976;30.316;2022-11-06T16:45:49;9.55;;;4.75;;
75854;SDS011;64502;59.976;30.316;2022-11-06T16:50:45;11.35;;;4.13;;
75854;SDS011;64502;59.976;30.316;2022-11-06T16:53:10;7.22;;;3.97;;
75854;SDS011;64502;59.976;30.316;2022-11-06T16:55:36;7.20;;;3.90;;
75854;SDS011;64502;59.976;30.316;2022-11-06T16:58:02;8.18;;;4.03;;
75854;SDS011;64502;59.976;30.316;2022-11-06T17:00:29;7.07;;;3.70;;
75854;SDS011;64502;59.976;30.316;2022-11-06T17:05:36;7.82;;;3.95;;
75854;SDS011;64502;59.976;30.316;2022-11-06T17:10:48;7.80;;;3.58;;
75854;SDS011;64502;59.976;30.316;2022-11-06T17:15:44;7.07;;;3.85;;
75854;SDS011;64502;59.976;30.316;2022-11-06T17:18:13;8.20;;;4.18;;
75854;SDS011;64502;59.976;30.316;2022-11-06T17:20:45;11.88;;;4.55;;
75854;SDS011;64502;59.976;30.316;2022-11-06T17:23:14;7.07;;;3.55;;
75854;SDS011;64502;59.976;30.316;2022-11-06T17:25:40;9.23;;;3.88;;
75854;SDS011;64502;59.976;30.316;2022-11-06T17:28:08;9.18;;;4.85;;
75854;SDS011;64502;59.976;30.316;2022-11-06T17:30:34;8.93;;;4.10;;
75854;SDS011;64502;59.976;30.316;2022-11-06T17:33:00;7.63;;;4.18;;
75854;SDS011;64502;59.976;30.316;2022-11-06T17:35:25;9.57;;;4.82;;
75854;SDS011;64502;59.976;30.316;2022-11-06T17:37:51;14.13;;;5.22;;
75854;SDS011;64502;59.976;30.316;2022-11-06T17:40:16;10.10;;;4.97;;
75854;SDS011;64502;59.976;30.316;2022-11-06T17:42:41;9.35;;;4.80;;
75854;SDS011;64502;59.976;30.316;2022-11-06T17:45:07;10.00;;;4.57;;
75854;SDS011;64502;59.976;30.316;2022-11-06T17:47:33;11.55;;;5.25;;